sensor_id;sensor_type;location;lat;lon;timestamp;P1;durP1;ratioP1;P2;durP2;ratioP2
56712;SDS011;42589;45.536;9.032;2024-01-06T00:00:13;4.13;;;3.72;;
56712;SDS011;42589;45.536;9.032;2024-01-06T00:03:16;5.03;;;3.67;;
56712;SDS011;42589;45.536;9.032;2024-01-06T00:06:18;3.97;;;3.50;;
56712;SDS011;42589;45.536;9.032;2024-01-06T00:09:18;4.50;;;4.10;;
56712;SDS011;42589;45.536;9.032;2024-01-06T00:12:19;3.83;;;3.53;;
56712;SDS011;42589;45.536;9.032;2024-01-06T00:15:21;4.20;;;3.80;;
56712;SDS011;42589;45.536;9.032;2024-01-06T00:18:21;4.28;;;3.88;;
56712;SDS011;42589;45.536;9.032;2024-01-06T00:21:22;4.05;;;3.55;;
56712;SDS011;42589;45.536;9.032;2024-01-06T00:24:23;5.20;;;3.70;;
56712;SDS011;42589;45.536;9.032;2024-01-06T00:27:24;4.22;;;3.83;;
56712;SDS011;42589;45.536;9.032;2024-01-06T00:30:24;4.35;;;3.95;;
56712;SDS011;42589;45.536;9.032;2024-01-06T00:33:25;5.13;;;3.67;;
56712;SDS011;42589;45.536;9.032;2024-01-06T00:36:26;3.83;;;3.42;;
56712;SDS011;42589;45.536;9.032;2024-01-06T00:39:27;3.90;;;3.55;;
56712;SDS011;42589;45.536;9.032;2024-01-06T00:42:27;4.43;;;3.53;;
56712;SDS011;42589;45.536;9.032;2024-01-06T00:45:28;3.90;;;3.50;;
56712;SDS011;42589;45.536;9.032;2024-01-06T00:48:29;4.07;;;3.67;;
56712;SDS011;42589;45.536;9.032;2024-01-06T00:51:30;3.58;;;3.20;;
56712;SDS011;42589;45.536;9.032;2024-01-06T00:54:30;4.65;;;3.65;;
56712;SDS011;42589;45.536;9.032;2024-01-06T00:57:31;4.22;;;3.55;;
56712;SDS011;42589;45.536;9.032;2024-01-06T01:00:32;3.50;;;3.20;;
56712;SDS011;42589;45.536;9.032;2024-01-06T01:03:33;3.03;;;2.72;;
56712;SDS011;42589;45.536;9.032;2024-01-06T01:06:34;3.42;;;3.13;;
56712;SDS011;42589;45.536;9.032;2024-01-06T01:09:37;2.80;;;2.50;;
56712;SDS011;42589;45.536;9.032;2024-01-06T01:12:37;3.00;;;2.70;;
56712;SDS011;42589;45.536;9.032;2024-01-06T01:15:37;3.60;;;2.50;;
56712;SDS011;42589;45.536;9.032;2024-01-06T01:18:38;2.70;;;2.17;;
56712;SDS011;42589;45.536;9.032;2024-01-06T01:21:38;2.42;;;2.30;;
56712;SDS011;42589;45.536;9.032;2024-01-06T01:24:39;2.60;;;2.40;;
56712;SDS011;42589;45.536;9.032;2024-01-06T01:27:39;2.45;;;2.25;;
56712;SDS011;42589;45.536;9.032;2024-01-06T01:30:41;2.95;;;2.75;;
56712;SDS011;42589;45.536;9.032;2024-01-06T01:33:41;3.60;;;3.25;;
56712;SDS011;42589;45.536;9.032;2024-01-06T01:36:42;3.08;;;2.88;;
56712;SDS011;42589;45.536;9.032;2024-01-06T01:39:43;3.55;;;2.90;;
56712;SDS011;42589;45.536;9.032;2024-01-06T01:42:43;3.58;;;2.92;;
56712;SDS011;42589;45.536;9.032;2024-01-06T01:45:44;2.97;;;2.58;;
56712;SDS011;42589;45.536;9.032;2024-01-06T01:48:45;3.65;;;2.90;;
56712;SDS011;42589;45.536;9.032;2024-01-06T01:51:47;3.95;;;2.65;;
56712;SDS011;42589;45.536;9.032;2024-01-06T01:54:48;3.00;;;2.70;;
56712;SDS011;42589;45.536;9.032;2024-01-06T01:57:49;2.80;;;2.58;;
56712;SDS011;42589;45.536;9.032;2024-01-06T02:00:49;2.83;;;2.53;;
56712;SDS011;42589;45.536;9.032;2024-01-06T02:03:50;2.75;;;2.50;;
56712;SDS011;42589;45.536;9.032;2024-01-06T02:06:51;2.63;;;2.38;;
56712;SDS011;42589;45.536;9.032;2024-01-06T02:09:52;2.40;;;2.20;;
56712;SDS011;42589;45.536;9.032;2024-01-06T02:12:52;3.03;;;2.78;;
56712;SDS011;42589;45.536;9.032;2024-01-06T02:15:52;2.70;;;2.50;;
56712;SDS011;42589;45.536;9.032;2024-01-06T02:18:55;2.90;;;2.40;;
56712;SDS011;42589;45.536;9.032;2024-01-06T02:21:55;2.80;;;2.60;;
56712;SDS011;42589;45.536;9.032;2024-01-06T02:24:57;2.70;;;2.50;;
56712;SDS011;42589;45.536;9.032;2024-01-06T02:27:58;3.30;;;2.78;;
56712;SDS011;42589;45.536;9.032;2024-01-06T02:30:59;3.40;;;3.00;;
56712;SDS011;42589;45.536;9.032;2024-01-06T02:33:59;3.90;;;2.97;;
56712;SDS011;42589;45.536;9.032;2024-01-06T02:37:00;3.25;;;2.90;;
56712;SDS011;42589;45.536;9.032;2024-01-06T02:40:01;3.50;;;3.13;;
56712;SDS011;42589;45.536;9.032;2024-01-06T02:43:01;4.10;;;3.45;;
56712;SDS011;42589;45.536;9.032;2024-01-06T02:46:02;4.15;;;3.42;;
56712;SDS011;42589;45.536;9.032;2024-01-06T02:49:02;4.78;;;3.20;;
56712;SDS011;42589;45.536;9.032;2024-01-06T02:52:03;3.90;;;3.50;;
56712;SDS011;42589;45.536;9.032;2024-01-06T02:55:05;4.28;;;3.78;;
56712;SDS011;42589;45.536;9.032;2024-01-06T02:58:06;3.47;;;3.17;;
56712;SDS011;42589;45.536;9.032;2024-01-06T03:01:07;3.85;;;3.50;;
56712;SDS011;42589;45.536;9.032;2024-01-06T03:04:08;3.33;;;3.03;;
56712;SDS011;42589;45.536;9.032;2024-01-06T03:07:09;3.75;;;3.33;;
56712;SDS011;42589;45.536;9.032;2024-01-06T03:10:10;4.60;;;3.30;;
56712;SDS011;42589;45.536;9.032;2024-01-06T03:13:10;3.78;;;3.40;;
56712;SDS011;42589;45.536;9.032;2024-01-06T03:16:11;3.40;;;3.10;;
56712;SDS011;42589;45.536;9.032;2024-01-06T03:19:12;3.72;;;3.10;;
56712;SDS011;42589;45.536;9.032;2024-01-06T03:22:13;3.20;;;2.90;;
56712;SDS011;42589;45.536;9.032;2024-01-06T03:25:13;3.20;;;2.92;;
56712;SDS011;42589;45.536;9.032;2024-01-06T03:28:14;3.30;;;3.00;;
56712;SDS011;42589;45.536;9.032;2024-01-06T03:31:15;3.45;;;3.15;;
56712;SDS011;42589;45.536;9.032;2024-01-06T03:34:16;4.15;;;3.75;;
56712;SDS011;42589;45.536;9.032;2024-01-06T03:37:17;5.85;;;4.00;;
56712;SDS011;42589;45.536;9.032;2024-01-06T03:40:17;4.07;;;3.78;;
56712;SDS011;42589;45.536;9.032;2024-01-06T03:43:17;4.20;;;3.80;;
56712;SDS011;42589;45.536;9.032;2024-01-06T03:46:18;4.40;;;4.00;;
56712;SDS011;42589;45.536;9.032;2024-01-06T03:49:19;4.32;;;3.92;;
56712;SDS011;42589;45.536;9.032;2024-01-06T03:52:20;4.53;;;4.13;;
56712;SDS011;42589;45.536;9.032;2024-01-06T03:55:24;4.40;;;3.60;;
56712;SDS011;42589;45.536;9.032;2024-01-06T03:58:25;3.83;;;3.45;;
56712;SDS011;42589;45.536;9.032;2024-01-06T04:01:26;3.90;;;3.60;;
56712;SDS011;42589;45.536;9.032;2024-01-06T04:04:28;3.70;;;3.40;;
56712;SDS011;42589;45.536;9.032;2024-01-06T04:07:29;3.95;;;3.60;;
56712;SDS011;42589;45.536;9.032;2024-01-06T04:10:30;3.67;;;3.30;;
56712;SDS011;42589;45.536;9.032;2024-01-06T04:13:31;4.90;;;3.30;;
56712;SDS011;42589;45.536;9.032;2024-01-06T04:16:31;4.55;;;4.25;;
56712;SDS011;42589;45.536;9.032;2024-01-06T04:19:32;6.55;;;5.95;;
56712;SDS011;42589;45.536;9.032;2024-01-06T04:22:33;8.90;;;7.70;;
56712;SDS011;42589;45.536;9.032;2024-01-06T04:25:34;8.32;;;7.60;;
56712;SDS011;42589;45.536;9.032;2024-01-06T04:28:35;10.35;;;9.35;;
56712;SDS011;42589;45.536;9.032;2024-01-06T04:31:36;10.50;;;9.40;;
56712;SDS011;42589;45.536;9.032;2024-01-06T04:34:38;10.45;;;9.45;;
56712;SDS011;42589;45.536;9.032;2024-01-06T04:37:38;11.77;;;10.68;;
56712;SDS011;42589;45.536;9.032;2024-01-06T04:40:39;10.70;;;9.80;;
56712;SDS011;42589;45.536;9.032;2024-01-06T04:43:40;10.65;;;9.55;;
56712;SDS011;42589;45.536;9.032;2024-01-06T04:46:41;10.82;;;9.70;;
56712;SDS011;42589;45.536;9.032;2024-01-06T04:49:42;10.00;;;9.10;;
56712;SDS011;42589;45.536;9.032;2024-01-06T04:52:43;10.38;;;9.40;;
56712;SDS011;42589;45.536;9.032;2024-01-06T04:55:43;9.88;;;9.02;;
56712;SDS011;42589;45.536;9.032;2024-01-06T04:58:44;9.38;;;8.48;;
56712;SDS011;42589;45.536;9.032;2024-01-06T05:01:45;9.77;;;8.88;;
56712;SDS011;42589;45.536;9.032;2024-01-06T05:04:46;9.88;;;8.88;;
56712;SDS011;42589;45.536;9.032;2024-01-06T05:07:47;9.80;;;8.90;;
56712;SDS011;42589;45.536;9.032;2024-01-06T05:10:48;9.23;;;8.43;;
56712;SDS011;42589;45.536;9.032;2024-01-06T05:13:49;9.52;;;8.68;;
56712;SDS011;42589;45.536;9.032;2024-01-06T05:16:50;8.80;;;8.00;;
56712;SDS011;42589;45.536;9.032;2024-01-06T05:19:50;8.38;;;7.68;;
56712;SDS011;42589;45.536;9.032;2024-01-06T05:22:51;11.52;;;7.85;;
56712;SDS011;42589;45.536;9.032;2024-01-06T05:25:51;8.30;;;7.60;;
56712;SDS011;42589;45.536;9.032;2024-01-06T05:28:52;9.32;;;8.05;;
56712;SDS011;42589;45.536;9.032;2024-01-06T05:31:53;8.38;;;7.53;;
56712;SDS011;42589;45.536;9.032;2024-01-06T05:34:53;8.30;;;7.60;;
56712;SDS011;42589;45.536;9.032;2024-01-06T05:37:54;8.93;;;8.13;;
56712;SDS011;42589;45.536;9.032;2024-01-06T05:40:55;8.80;;;8.00;;
56712;SDS011;42589;45.536;9.032;2024-01-06T05:43:55;7.07;;;6.47;;
56712;SDS011;42589;45.536;9.032;2024-01-06T05:46:56;7.82;;;6.50;;
56712;SDS011;42589;45.536;9.032;2024-01-06T05:49:57;7.00;;;6.30;;
56712;SDS011;42589;45.536;9.032;2024-01-06T05:52:57;6.82;;;6.13;;
56712;SDS011;42589;45.536;9.032;2024-01-06T05:55:58;8.27;;;6.82;;
56712;SDS011;42589;45.536;9.032;2024-01-06T05:58:59;8.35;;;6.70;;
56712;SDS011;42589;45.536;9.032;2024-01-06T06:01:59;7.15;;;6.40;;
56712;SDS011;42589;45.536;9.032;2024-01-06T06:05:00;7.00;;;6.35;;
56712;SDS011;42589;45.536;9.032;2024-01-06T06:08:01;6.55;;;5.95;;
56712;SDS011;42589;45.536;9.032;2024-01-06T06:11:02;5.72;;;5.25;;
56712;SDS011;42589;45.536;9.032;2024-01-06T06:14:10;5.07;;;4.68;;
56712;SDS011;42589;45.536;9.032;2024-01-06T06:17:11;5.05;;;4.65;;
56712;SDS011;42589;45.536;9.032;2024-01-06T06:20:12;4.57;;;4.18;;
56712;SDS011;42589;45.536;9.032;2024-01-06T06:23:13;6.95;;;5.13;;
56712;SDS011;42589;45.536;9.032;2024-01-06T06:26:13;7.28;;;6.57;;
56712;SDS011;42589;45.536;9.032;2024-01-06T06:29:14;9.10;;;8.20;;
56712;SDS011;42589;45.536;9.032;2024-01-06T06:32:15;10.15;;;9.05;;
56712;SDS011;42589;45.536;9.032;2024-01-06T06:35:15;11.35;;;10.25;;
56712;SDS011;42589;45.536;9.032;2024-01-06T06:38:16;13.25;;;11.95;;
56712;SDS011;42589;45.536;9.032;2024-01-06T06:41:17;14.70;;;13.25;;
56712;SDS011;42589;45.536;9.032;2024-01-06T06:44:17;17.30;;;14.38;;
56712;SDS011;42589;45.536;9.032;2024-01-06T06:47:18;19.00;;;17.00;;
56712;SDS011;42589;45.536;9.032;2024-01-06T06:50:19;20.75;;;17.48;;
56712;SDS011;42589;45.536;9.032;2024-01-06T06:53:20;20.92;;;18.70;;
56712;SDS011;42589;45.536;9.032;2024-01-06T06:56:21;20.88;;;18.67;;
56712;SDS011;42589;45.536;9.032;2024-01-06T06:59:22;20.00;;;18.00;;
56712;SDS011;42589;45.536;9.032;2024-01-06T07:02:23;20.08;;;18.00;;
56712;SDS011;42589;45.536;9.032;2024-01-06T07:05:24;19.67;;;17.67;;
56712;SDS011;42589;45.536;9.032;2024-01-06T07:08:25;19.55;;;17.55;;
56712;SDS011;42589;45.536;9.032;2024-01-06T07:11:27;18.98;;;16.98;;
56712;SDS011;42589;45.536;9.032;2024-01-06T07:14:27;19.33;;;17.42;;
56712;SDS011;42589;45.536;9.032;2024-01-06T07:17:28;18.60;;;16.70;;
56712;SDS011;42589;45.536;9.032;2024-01-06T07:20:28;18.73;;;16.73;;
56712;SDS011;42589;45.536;9.032;2024-01-06T07:23:29;17.92;;;16.13;;
56712;SDS011;42589;45.536;9.032;2024-01-06T07:26:30;18.27;;;16.38;;
56712;SDS011;42589;45.536;9.032;2024-01-06T07:29:31;18.40;;;16.50;;
56712;SDS011;42589;45.536;9.032;2024-01-06T07:32:31;19.38;;;17.38;;
56712;SDS011;42589;45.536;9.032;2024-01-06T07:35:32;19.10;;;17.20;;
56712;SDS011;42589;45.536;9.032;2024-01-06T07:38:33;18.45;;;16.52;;
56712;SDS011;42589;45.536;9.032;2024-01-06T07:41:34;18.35;;;16.40;;
56712;SDS011;42589;45.536;9.032;2024-01-06T07:44:34;18.48;;;16.58;;
56712;SDS011;42589;45.536;9.032;2024-01-06T07:47:36;18.75;;;16.85;;
56712;SDS011;42589;45.536;9.032;2024-01-06T07:50:37;17.77;;;16.08;;
56712;SDS011;42589;45.536;9.032;2024-01-06T07:53:38;17.67;;;15.90;;
56712;SDS011;42589;45.536;9.032;2024-01-06T07:56:38;19.38;;;17.58;;
56712;SDS011;42589;45.536;9.032;2024-01-06T07:59:39;17.13;;;15.10;;
56712;SDS011;42589;45.536;9.032;2024-01-06T08:02:40;17.15;;;15.45;;
56712;SDS011;42589;45.536;9.032;2024-01-06T08:05:41;18.05;;;16.15;;
56712;SDS011;42589;45.536;9.032;2024-01-06T08:08:41;18.20;;;16.30;;
56712;SDS011;42589;45.536;9.032;2024-01-06T08:11:42;17.83;;;16.02;;
56712;SDS011;42589;45.536;9.032;2024-01-06T08:14:46;18.65;;;15.95;;
56712;SDS011;42589;45.536;9.032;2024-01-06T08:17:47;17.73;;;16.02;;
56712;SDS011;42589;45.536;9.032;2024-01-06T08:20:47;16.85;;;15.25;;
56712;SDS011;42589;45.536;9.032;2024-01-06T08:23:48;17.58;;;15.88;;
56712;SDS011;42589;45.536;9.032;2024-01-06T08:26:48;16.90;;;15.20;;
56712;SDS011;42589;45.536;9.032;2024-01-06T08:29:49;18.13;;;16.23;;
56712;SDS011;42589;45.536;9.032;2024-01-06T08:32:50;18.48;;;16.38;;
56712;SDS011;42589;45.536;9.032;2024-01-06T08:35:52;16.25;;;14.70;;
56712;SDS011;42589;45.536;9.032;2024-01-06T08:38:56;17.00;;;15.38;;
56712;SDS011;42589;45.536;9.032;2024-01-06T08:41:57;17.20;;;15.40;;
56712;SDS011;42589;45.536;9.032;2024-01-06T08:45:01;17.33;;;15.63;;
56712;SDS011;42589;45.536;9.032;2024-01-06T08:48:03;16.20;;;14.60;;
56712;SDS011;42589;45.536;9.032;2024-01-06T08:51:04;15.63;;;14.02;;
56712;SDS011;42589;45.536;9.032;2024-01-06T08:54:05;15.52;;;13.90;;
56712;SDS011;42589;45.536;9.032;2024-01-06T08:57:05;16.83;;;13.73;;
56712;SDS011;42589;45.536;9.032;2024-01-06T09:00:06;15.38;;;13.20;;
56712;SDS011;42589;45.536;9.032;2024-01-06T09:03:09;15.70;;;14.02;;
56712;SDS011;42589;45.536;9.032;2024-01-06T09:06:09;16.00;;;14.30;;
56712;SDS011;42589;45.536;9.032;2024-01-06T09:09:11;15.75;;;14.15;;
56712;SDS011;42589;45.536;9.032;2024-01-06T09:12:12;15.60;;;14.10;;
56712;SDS011;42589;45.536;9.032;2024-01-06T09:15:12;17.45;;;14.60;;
56712;SDS011;42589;45.536;9.032;2024-01-06T09:18:13;15.32;;;13.77;;
56712;SDS011;42589;45.536;9.032;2024-01-06T09:21:13;16.10;;;14.40;;
56712;SDS011;42589;45.536;9.032;2024-01-06T09:24:15;14.95;;;13.45;;
56712;SDS011;42589;45.536;9.032;2024-01-06T09:27:15;15.50;;;14.00;;
56712;SDS011;42589;45.536;9.032;2024-01-06T09:30:15;16.60;;;15.00;;
56712;SDS011;42589;45.536;9.032;2024-01-06T09:33:16;17.20;;;15.38;;
56712;SDS011;42589;45.536;9.032;2024-01-06T09:36:17;17.67;;;15.63;;
56712;SDS011;42589;45.536;9.032;2024-01-06T09:39:17;17.50;;;15.52;;
56712;SDS011;42589;45.536;9.032;2024-01-06T09:42:18;19.58;;;17.50;;
56712;SDS011;42589;45.536;9.032;2024-01-06T09:45:19;18.58;;;16.67;;
56712;SDS011;42589;45.536;9.032;2024-01-06T09:48:20;19.25;;;17.10;;
56712;SDS011;42589;45.536;9.032;2024-01-06T09:51:22;21.10;;;18.60;;
56712;SDS011;42589;45.536;9.032;2024-01-06T09:54:23;20.75;;;18.65;;
56712;SDS011;42589;45.536;9.032;2024-01-06T09:57:26;23.73;;;21.33;;
56712;SDS011;42589;45.536;9.032;2024-01-06T10:00:27;27.33;;;24.33;;
56712;SDS011;42589;45.536;9.032;2024-01-06T10:03:28;25.85;;;23.02;;
56712;SDS011;42589;45.536;9.032;2024-01-06T10:06:29;25.35;;;22.58;;
56712;SDS011;42589;45.536;9.032;2024-01-06T10:09:29;25.23;;;22.52;;
56712;SDS011;42589;45.536;9.032;2024-01-06T10:12:30;25.75;;;22.92;;
56712;SDS011;42589;45.536;9.032;2024-01-06T10:15:31;26.27;;;23.20;;
56712;SDS011;42589;45.536;9.032;2024-01-06T10:18:31;25.95;;;23.15;;
56712;SDS011;42589;45.536;9.032;2024-01-06T10:21:32;27.58;;;24.38;;
56712;SDS011;42589;45.536;9.032;2024-01-06T10:24:36;32.42;;;29.02;;
56712;SDS011;42589;45.536;9.032;2024-01-06T10:27:37;27.65;;;24.58;;
56712;SDS011;42589;45.536;9.032;2024-01-06T10:30:38;28.20;;;25.10;;
56712;SDS011;42589;45.536;9.032;2024-01-06T10:33:38;28.73;;;25.63;;
56712;SDS011;42589;45.536;9.032;2024-01-06T10:36:39;32.88;;;29.38;;
56712;SDS011;42589;45.536;9.032;2024-01-06T10:39:40;29.88;;;25.65;;
56712;SDS011;42589;45.536;9.032;2024-01-06T10:42:41;32.95;;;27.92;;
56712;SDS011;42589;45.536;9.032;2024-01-06T10:45:41;33.33;;;27.75;;
56712;SDS011;42589;45.536;9.032;2024-01-06T10:48:43;30.10;;;26.13;;
56712;SDS011;42589;45.536;9.032;2024-01-06T10:51:45;35.80;;;29.80;;
56712;SDS011;42589;45.536;9.032;2024-01-06T10:54:46;37.17;;;31.27;;
56712;SDS011;42589;45.536;9.032;2024-01-06T10:57:50;36.20;;;30.33;;
56712;SDS011;42589;45.536;9.032;2024-01-06T11:00:51;31.50;;;27.55;;
56712;SDS011;42589;45.536;9.032;2024-01-06T11:03:52;33.92;;;29.15;;
56712;SDS011;42589;45.536;9.032;2024-01-06T11:06:54;35.90;;;29.00;;
56712;SDS011;42589;45.536;9.032;2024-01-06T11:09:58;36.97;;;29.88;;
56712;SDS011;42589;45.536;9.032;2024-01-06T11:13:32;35.03;;;29.83;;
56712;SDS011;42589;45.536;9.032;2024-01-06T11:16:36;33.28;;;29.45;;
56712;SDS011;42589;45.536;9.032;2024-01-06T11:22:40;40.40;;;33.90;;
56712;SDS011;42589;45.536;9.032;2024-01-06T11:25:42;36.17;;;30.30;;
56712;SDS011;42589;45.536;9.032;2024-01-06T11:28:46;32.70;;;28.90;;
56712;SDS011;42589;45.536;9.032;2024-01-06T11:32:30;32.65;;;28.15;;
56712;SDS011;42589;45.536;9.032;2024-01-06T11:35:11;32.63;;;28.73;;
56712;SDS011;42589;45.536;9.032;2024-01-06T11:38:12;32.60;;;27.83;;
56712;SDS011;42589;45.536;9.032;2024-01-06T11:41:44;32.15;;;28.20;;
56712;SDS011;42589;45.536;9.032;2024-01-06T11:44:36;35.65;;;30.58;;
56712;SDS011;42589;45.536;9.032;2024-01-06T11:47:37;35.30;;;30.08;;
56712;SDS011;42589;45.536;9.032;2024-01-06T11:50:39;31.38;;;27.48;;
56712;SDS011;42589;45.536;9.032;2024-01-06T11:53:40;32.45;;;28.48;;
56712;SDS011;42589;45.536;9.032;2024-01-06T11:56:41;32.03;;;27.27;;
56712;SDS011;42589;45.536;9.032;2024-01-06T11:59:42;31.05;;;27.38;;
56712;SDS011;42589;45.536;9.032;2024-01-06T12:02:45;30.60;;;26.88;;
56712;SDS011;42589;45.536;9.032;2024-01-06T12:05:45;31.55;;;26.75;;
56712;SDS011;42589;45.536;9.032;2024-01-06T12:08:46;33.80;;;27.83;;
56712;SDS011;42589;45.536;9.032;2024-01-06T12:11:46;32.95;;;28.38;;
56712;SDS011;42589;45.536;9.032;2024-01-06T12:14:47;33.15;;;29.05;;
56712;SDS011;42589;45.536;9.032;2024-01-06T12:17:49;35.30;;;30.17;;
56712;SDS011;42589;45.536;9.032;2024-01-06T12:20:50;34.75;;;29.55;;
56712;SDS011;42589;45.536;9.032;2024-01-06T12:23:50;34.25;;;28.67;;
56712;SDS011;42589;45.536;9.032;2024-01-06T12:26:51;33.60;;;29.33;;
56712;SDS011;42589;45.536;9.032;2024-01-06T12:29:52;34.00;;;28.63;;
56712;SDS011;42589;45.536;9.032;2024-01-06T12:32:56;35.78;;;29.83;;
56712;SDS011;42589;45.536;9.032;2024-01-06T12:35:57;31.55;;;27.85;;
56712;SDS011;42589;45.536;9.032;2024-01-06T12:38:57;32.28;;;27.95;;
56712;SDS011;42589;45.536;9.032;2024-01-06T12:41:58;31.67;;;28.30;;
56712;SDS011;42589;45.536;9.032;2024-01-06T12:45:02;30.58;;;27.27;;
56712;SDS011;42589;45.536;9.032;2024-01-06T12:48:02;29.40;;;26.30;;
56712;SDS011;42589;45.536;9.032;2024-01-06T12:51:03;32.83;;;29.33;;
56712;SDS011;42589;45.536;9.032;2024-01-06T12:54:05;31.65;;;28.20;;
56712;SDS011;42589;45.536;9.032;2024-01-06T12:57:07;30.95;;;27.10;;
56712;SDS011;42589;45.536;9.032;2024-01-06T13:00:11;32.97;;;28.77;;
56712;SDS011;42589;45.536;9.032;2024-01-06T13:03:12;31.73;;;28.35;;
56712;SDS011;42589;45.536;9.032;2024-01-06T13:06:14;32.47;;;29.05;;
56712;SDS011;42589;45.536;9.032;2024-01-06T13:09:16;33.85;;;29.50;;
56712;SDS011;42589;45.536;9.032;2024-01-06T13:12:16;32.28;;;28.38;;
56712;SDS011;42589;45.536;9.032;2024-01-06T13:15:24;30.58;;;27.27;;
56712;SDS011;42589;45.536;9.032;2024-01-06T13:18:25;31.27;;;27.88;;
56712;SDS011;42589;45.536;9.032;2024-01-06T13:21:26;33.08;;;29.23;;
56712;SDS011;42589;45.536;9.032;2024-01-06T13:24:29;32.15;;;28.52;;
56712;SDS011;42589;45.536;9.032;2024-01-06T13:27:30;35.35;;;31.55;;
56712;SDS011;42589;45.536;9.032;2024-01-06T13:30:31;34.55;;;30.75;;
56712;SDS011;42589;45.536;9.032;2024-01-06T13:33:32;36.10;;;31.67;;
56712;SDS011;42589;45.536;9.032;2024-01-06T13:36:33;37.08;;;32.83;;
56712;SDS011;42589;45.536;9.032;2024-01-06T13:39:33;33.05;;;28.65;;
56712;SDS011;42589;45.536;9.032;2024-01-06T13:42:34;31.33;;;27.95;;
56712;SDS011;42589;45.536;9.032;2024-01-06T13:45:35;34.42;;;29.38;;
56712;SDS011;42589;45.536;9.032;2024-01-06T13:48:35;37.92;;;31.33;;
56712;SDS011;42589;45.536;9.032;2024-01-06T13:51:37;35.45;;;30.48;;
56712;SDS011;42589;45.536;9.032;2024-01-06T13:54:38;38.67;;;32.13;;
56712;SDS011;42589;45.536;9.032;2024-01-06T13:57:39;42.55;;;35.70;;
56712;SDS011;42589;45.536;9.032;2024-01-06T14:00:42;43.72;;;35.88;;
56712;SDS011;42589;45.536;9.032;2024-01-06T14:03:44;42.72;;;35.60;;
56712;SDS011;42589;45.536;9.032;2024-01-06T14:06:44;43.28;;;36.03;;
56712;SDS011;42589;45.536;9.032;2024-01-06T14:09:48;46.83;;;36.55;;
56712;SDS011;42589;45.536;9.032;2024-01-06T14:12:48;48.67;;;37.40;;
56712;SDS011;42589;45.536;9.032;2024-01-06T14:15:49;52.17;;;39.78;;
56712;SDS011;42589;45.536;9.032;2024-01-06T14:18:49;55.22;;;41.47;;
56712;SDS011;42589;45.536;9.032;2024-01-06T14:21:50;53.38;;;40.25;;
56712;SDS011;42589;45.536;9.032;2024-01-06T14:24:53;60.05;;;44.13;;
56712;SDS011;42589;45.536;9.032;2024-01-06T14:27:55;62.65;;;46.83;;
56712;SDS011;42589;45.536;9.032;2024-01-06T14:31:00;60.88;;;44.35;;
56712;SDS011;42589;45.536;9.032;2024-01-06T14:34:01;60.45;;;43.15;;
56712;SDS011;42589;45.536;9.032;2024-01-06T14:37:01;62.45;;;45.33;;
56712;SDS011;42589;45.536;9.032;2024-01-06T14:40:05;56.55;;;41.53;;
56712;SDS011;42589;45.536;9.032;2024-01-06T14:43:09;58.70;;;42.67;;
56712;SDS011;42589;45.536;9.032;2024-01-06T14:46:10;57.83;;;43.05;;
56712;SDS011;42589;45.536;9.032;2024-01-06T14:49:11;60.58;;;43.85;;
56712;SDS011;42589;45.536;9.032;2024-01-06T14:52:11;62.83;;;44.80;;
56712;SDS011;42589;45.536;9.032;2024-01-06T14:55:12;60.30;;;45.05;;
56712;SDS011;42589;45.536;9.032;2024-01-06T14:58:12;60.70;;;44.47;;
56712;SDS011;42589;45.536;9.032;2024-01-06T15:01:12;58.30;;;43.70;;
56712;SDS011;42589;45.536;9.032;2024-01-06T15:04:13;54.38;;;41.75;;
56712;SDS011;42589;45.536;9.032;2024-01-06T15:07:14;55.13;;;42.08;;
56712;SDS011;42589;45.536;9.032;2024-01-06T15:10:15;57.00;;;42.88;;
56712;SDS011;42589;45.536;9.032;2024-01-06T15:13:15;55.25;;;42.40;;
56712;SDS011;42589;45.536;9.032;2024-01-06T15:16:16;54.92;;;41.58;;
56712;SDS011;42589;45.536;9.032;2024-01-06T15:19:37;56.72;;;43.22;;
56712;SDS011;42589;45.536;9.032;2024-01-06T15:22:37;51.97;;;40.85;;
56712;SDS011;42589;45.536;9.032;2024-01-06T15:25:38;49.17;;;38.42;;
56712;SDS011;42589;45.536;9.032;2024-01-06T15:28:39;50.78;;;39.00;;
56712;SDS011;42589;45.536;9.032;2024-01-06T15:31:43;50.38;;;40.28;;
56712;SDS011;42589;45.536;9.032;2024-01-06T15:34:43;46.25;;;37.90;;
56712;SDS011;42589;45.536;9.032;2024-01-06T15:37:44;49.25;;;39.33;;
56712;SDS011;42589;45.536;9.032;2024-01-06T15:40:45;46.45;;;38.42;;
56712;SDS011;42589;45.536;9.032;2024-01-06T15:43:46;48.53;;;37.83;;
56712;SDS011;42589;45.536;9.032;2024-01-06T15:46:47;49.63;;;38.63;;
56712;SDS011;42589;45.536;9.032;2024-01-06T15:49:47;49.55;;;38.45;;
56712;SDS011;42589;45.536;9.032;2024-01-06T15:52:48;47.38;;;38.10;;
56712;SDS011;42589;45.536;9.032;2024-01-06T15:55:49;49.20;;;39.45;;
56712;SDS011;42589;45.536;9.032;2024-01-06T15:58:51;48.58;;;38.10;;
56712;SDS011;42589;45.536;9.032;2024-01-06T16:01:54;47.05;;;38.58;;
56712;SDS011;42589;45.536;9.032;2024-01-06T16:04:54;49.03;;;37.85;;
56712;SDS011;42589;45.536;9.032;2024-01-06T16:07:54;47.38;;;37.00;;
56712;SDS011;42589;45.536;9.032;2024-01-06T16:10:55;50.20;;;37.65;;
56712;SDS011;42589;45.536;9.032;2024-01-06T16:13:56;48.33;;;38.88;;
56712;SDS011;42589;45.536;9.032;2024-01-06T16:17:00;47.38;;;37.97;;
56712;SDS011;42589;45.536;9.032;2024-01-06T16:20:00;50.33;;;40.22;;
56712;SDS011;42589;45.536;9.032;2024-01-06T16:23:01;44.45;;;36.63;;
56712;SDS011;42589;45.536;9.032;2024-01-06T16:26:02;48.40;;;38.60;;
56712;SDS011;42589;45.536;9.032;2024-01-06T16:29:02;49.50;;;37.05;;
56712;SDS011;42589;45.536;9.032;2024-01-06T16:32:03;49.85;;;38.25;;
56712;SDS011;42589;45.536;9.032;2024-01-06T16:35:04;49.22;;;39.90;;
56712;SDS011;42589;45.536;9.032;2024-01-06T16:38:05;51.22;;;40.33;;
56712;SDS011;42589;45.536;9.032;2024-01-06T16:41:05;51.80;;;39.75;;
56712;SDS011;42589;45.536;9.032;2024-01-06T16:44:06;50.92;;;39.60;;
56712;SDS011;42589;45.536;9.032;2024-01-06T16:47:07;48.75;;;38.17;;
56712;SDS011;42589;45.536;9.032;2024-01-06T16:50:07;50.00;;;39.20;;
56712;SDS011;42589;45.536;9.032;2024-01-06T16:53:08;47.78;;;39.05;;
56712;SDS011;42589;45.536;9.032;2024-01-06T16:56:09;56.08;;;42.85;;
56712;SDS011;42589;45.536;9.032;2024-01-06T16:59:12;56.95;;;44.22;;
56712;SDS011;42589;45.536;9.032;2024-01-06T17:02:13;51.95;;;41.75;;
56712;SDS011;42589;45.536;9.032;2024-01-06T17:05:14;55.53;;;44.47;;
56712;SDS011;42589;45.536;9.032;2024-01-06T17:08:14;53.65;;;42.50;;
56712;SDS011;42589;45.536;9.032;2024-01-06T17:11:15;53.97;;;42.90;;
56712;SDS011;42589;45.536;9.032;2024-01-06T17:14:15;52.90;;;42.03;;
56712;SDS011;42589;45.536;9.032;2024-01-06T17:17:16;51.30;;;42.67;;
56712;SDS011;42589;45.536;9.032;2024-01-06T17:20:17;50.45;;;42.70;;
56712;SDS011;42589;45.536;9.032;2024-01-06T17:23:17;50.08;;;40.70;;
56712;SDS011;42589;45.536;9.032;2024-01-06T17:26:17;50.35;;;41.15;;
56712;SDS011;42589;45.536;9.032;2024-01-06T17:29:18;52.35;;;41.85;;
56712;SDS011;42589;45.536;9.032;2024-01-06T17:32:18;51.88;;;41.70;;
56712;SDS011;42589;45.536;9.032;2024-01-06T17:35:19;54.42;;;42.67;;
56712;SDS011;42589;45.536;9.032;2024-01-06T17:38:20;53.05;;;41.80;;
56712;SDS011;42589;45.536;9.032;2024-01-06T17:41:21;52.90;;;42.88;;
56712;SDS011;42589;45.536;9.032;2024-01-06T17:44:22;53.45;;;42.78;;
56712;SDS011;42589;45.536;9.032;2024-01-06T17:47:23;53.17;;;41.70;;
56712;SDS011;42589;45.536;9.032;2024-01-06T17:50:24;54.38;;;43.35;;
56712;SDS011;42589;45.536;9.032;2024-01-06T17:53:24;53.88;;;42.08;;